sensor_id;sensor_type;location;lat;lon;timestamp;P1;durP1;ratioP1;P2;durP2;ratioP2
83929;SDS011;73959;52.130;5.584;2024-01-30T00:00:11;30.42;;;16.25;;
83929;SDS011;73959;52.130;5.584;2024-01-30T00:02:37;23.05;;;16.77;;
83929;SDS011;73959;52.130;5.584;2024-01-30T00:05:03;24.40;;;16.90;;
83929;SDS011;73959;52.130;5.584;2024-01-30T00:07:29;25.42;;;16.08;;
83929;SDS011;73959;52.130;5.584;2024-01-30T00:09:55;26.15;;;16.85;;
83929;SDS011;73959;52.130;5.584;2024-01-30T00:12:21;23.88;;;16.05;;
83929;SDS011;73959;52.130;5.584;2024-01-30T00:14:47;22.63;;;15.30;;
83929;SDS011;73959;52.130;5.584;2024-01-30T00:17:13;24.70;;;16.15;;
83929;SDS011;73959;52.130;5.584;2024-01-30T00:19:39;24.98;;;16.30;;
83929;SDS011;73959;52.130;5.584;2024-01-30T00:22:05;22.60;;;16.20;;
83929;SDS011;73959;52.130;5.584;2024-01-30T00:24:32;22.98;;;15.73;;
83929;SDS011;73959;52.130;5.584;2024-01-30T00:26:58;25.50;;;15.77;;
83929;SDS011;73959;52.130;5.584;2024-01-30T00:29:24;20.48;;;14.85;;
83929;SDS011;73959;52.130;5.584;2024-01-30T00:31:54;25.25;;;16.10;;
83929;SDS011;73959;52.130;5.584;2024-01-30T00:34:20;25.48;;;16.85;;
83929;SDS011;73959;52.130;5.584;2024-01-30T00:36:46;21.48;;;15.75;;
83929;SDS011;73959;52.130;5.584;2024-01-30T00:39:12;22.90;;;15.95;;
83929;SDS011;73959;52.130;5.584;2024-01-30T00:41:40;24.02;;;16.10;;
83929;SDS011;73959;52.130;5.584;2024-01-30T00:44:06;22.20;;;16.23;;
83929;SDS011;73959;52.130;5.584;2024-01-30T00:46:32;26.40;;;16.85;;
83929;SDS011;73959;52.130;5.584;2024-01-30T00:48:58;22.83;;;15.80;;
83929;SDS011;73959;52.130;5.584;2024-01-30T00:51:24;22.98;;;16.30;;
83929;SDS011;73959;52.130;5.584;2024-01-30T00:53:50;23.80;;;16.60;;
83929;SDS011;73959;52.130;5.584;2024-01-30T00:56:16;24.92;;;16.52;;
83929;SDS011;73959;52.130;5.584;2024-01-30T00:58:43;21.58;;;15.65;;
83929;SDS011;73959;52.130;5.584;2024-01-30T01:01:09;23.23;;;15.95;;
83929;SDS011;73959;52.130;5.584;2024-01-30T01:03:35;22.17;;;15.32;;
83929;SDS011;73959;52.130;5.584;2024-01-30T01:06:01;28.80;;;16.88;;
83929;SDS011;73959;52.130;5.584;2024-01-30T01:08:27;22.77;;;17.13;;
83929;SDS011;73959;52.130;5.584;2024-01-30T01:10:53;24.98;;;16.25;;
83929;SDS011;73959;52.130;5.584;2024-01-30T01:13:19;29.70;;;16.50;;
83929;SDS011;73959;52.130;5.584;2024-01-30T01:15:45;23.15;;;16.30;;
83929;SDS011;73959;52.130;5.584;2024-01-30T01:18:11;24.67;;;15.93;;
83929;SDS011;73959;52.130;5.584;2024-01-30T01:20:36;23.95;;;15.82;;
83929;SDS011;73959;52.130;5.584;2024-01-30T01:23:02;25.10;;;16.65;;
83929;SDS011;73959;52.130;5.584;2024-01-30T01:25:28;21.45;;;15.48;;
83929;SDS011;73959;52.130;5.584;2024-01-30T01:27:54;22.65;;;15.82;;
83929;SDS011;73959;52.130;5.584;2024-01-30T01:30:20;24.42;;;16.27;;
83929;SDS011;73959;52.130;5.584;2024-01-30T01:32:49;24.00;;;15.32;;
83929;SDS011;73959;52.130;5.584;2024-01-30T01:35:22;22.05;;;15.32;;
83929;SDS011;73959;52.130;5.584;2024-01-30T01:37:52;21.83;;;15.57;;
83929;SDS011;73959;52.130;5.584;2024-01-30T01:40:26;23.73;;;16.00;;
83929;SDS011;73959;52.130;5.584;2024-01-30T01:42:53;23.20;;;15.70;;
83929;SDS011;73959;52.130;5.584;2024-01-30T01:45:19;21.67;;;15.02;;
83929;SDS011;73959;52.130;5.584;2024-01-30T01:47:47;23.42;;;15.68;;
83929;SDS011;73959;52.130;5.584;2024-01-30T01:50:13;21.77;;;14.88;;
83929;SDS011;73959;52.130;5.584;2024-01-30T01:52:40;21.95;;;14.38;;
83929;SDS011;73959;52.130;5.584;2024-01-30T01:55:07;20.10;;;14.45;;
83929;SDS011;73959;52.130;5.584;2024-01-30T01:57:33;24.50;;;15.02;;
83929;SDS011;73959;52.130;5.584;2024-01-30T02:00:00;22.30;;;14.77;;
83929;SDS011;73959;52.130;5.584;2024-01-30T02:02:27;18.95;;;14.07;;
83929;SDS011;73959;52.130;5.584;2024-01-30T02:04:56;20.42;;;14.02;;
83929;SDS011;73959;52.130;5.584;2024-01-30T02:07:23;21.95;;;14.10;;
83929;SDS011;73959;52.130;5.584;2024-01-30T02:09:49;19.52;;;13.75;;
83929;SDS011;73959;52.130;5.584;2024-01-30T02:12:15;19.45;;;13.77;;
83929;SDS011;73959;52.130;5.584;2024-01-30T02:14:45;20.52;;;14.15;;
83929;SDS011;73959;52.130;5.584;2024-01-30T02:17:11;22.48;;;13.80;;
83929;SDS011;73959;52.130;5.584;2024-01-30T02:19:37;18.75;;;13.45;;
83929;SDS011;73959;52.130;5.584;2024-01-30T02:22:03;21.80;;;14.45;;
83929;SDS011;73959;52.130;5.584;2024-01-30T02:24:30;20.85;;;13.73;;
83929;SDS011;73959;52.130;5.584;2024-01-30T02:26:56;20.42;;;13.00;;
83929;SDS011;73959;52.130;5.584;2024-01-30T02:29:22;18.60;;;13.27;;
83929;SDS011;73959;52.130;5.584;2024-01-30T02:31:48;21.67;;;14.23;;
83929;SDS011;73959;52.130;5.584;2024-01-30T02:34:14;22.48;;;13.55;;
83929;SDS011;73959;52.130;5.584;2024-01-30T02:36:43;22.98;;;14.40;;
83929;SDS011;73959;52.130;5.584;2024-01-30T02:39:09;21.50;;;13.68;;
83929;SDS011;73959;52.130;5.584;2024-01-30T02:41:35;21.23;;;13.10;;
83929;SDS011;73959;52.130;5.584;2024-01-30T02:44:01;17.83;;;13.20;;
83929;SDS011;73959;52.130;5.584;2024-01-30T02:46:27;21.88;;;14.50;;
83929;SDS011;73959;52.130;5.584;2024-01-30T02:48:53;20.20;;;14.15;;
83929;SDS011;73959;52.130;5.584;2024-01-30T02:51:19;22.50;;;14.82;;
83929;SDS011;73959;52.130;5.584;2024-01-30T02:53:45;18.90;;;13.38;;
83929;SDS011;73959;52.130;5.584;2024-01-30T02:56:11;20.27;;;13.85;;
83929;SDS011;73959;52.130;5.584;2024-01-30T02:58:38;19.23;;;13.45;;
83929;SDS011;73959;52.130;5.584;2024-01-30T03:01:05;21.05;;;13.75;;
83929;SDS011;73959;52.130;5.584;2024-01-30T03:03:31;20.98;;;13.70;;
83929;SDS011;73959;52.130;5.584;2024-01-30T03:05:57;21.05;;;13.45;;
83929;SDS011;73959;52.130;5.584;2024-01-30T03:08:23;20.70;;;13.27;;
83929;SDS011;73959;52.130;5.584;2024-01-30T03:10:49;17.83;;;12.90;;
83929;SDS011;73959;52.130;5.584;2024-01-30T03:13:14;22.73;;;14.05;;
83929;SDS011;73959;52.130;5.584;2024-01-30T03:15:40;22.98;;;14.52;;
83929;SDS011;73959;52.130;5.584;2024-01-30T03:18:06;17.83;;;12.60;;
83929;SDS011;73959;52.130;5.584;2024-01-30T03:20:32;19.48;;;13.35;;
83929;SDS011;73959;52.130;5.584;2024-01-30T03:22:59;17.42;;;12.93;;
83929;SDS011;73959;52.130;5.584;2024-01-30T03:25:25;19.48;;;12.68;;
83929;SDS011;73959;52.130;5.584;2024-01-30T03:27:51;20.15;;;13.40;;
83929;SDS011;73959;52.130;5.584;2024-01-30T03:30:17;19.50;;;13.73;;
83929;SDS011;73959;52.130;5.584;2024-01-30T03:32:43;19.42;;;12.88;;
83929;SDS011;73959;52.130;5.584;2024-01-30T03:35:09;18.60;;;12.90;;
83929;SDS011;73959;52.130;5.584;2024-01-30T03:37:36;23.45;;;13.65;;
83929;SDS011;73959;52.130;5.584;2024-01-30T03:40:02;21.38;;;13.32;;
83929;SDS011;73959;52.130;5.584;2024-01-30T03:42:28;20.83;;;13.52;;
83929;SDS011;73959;52.130;5.584;2024-01-30T03:44:54;19.80;;;12.95;;
83929;SDS011;73959;52.130;5.584;2024-01-30T03:47:20;20.83;;;13.20;;
83929;SDS011;73959;52.130;5.584;2024-01-30T03:49:46;19.55;;;12.40;;
83929;SDS011;73959;52.130;5.584;2024-01-30T03:52:12;19.13;;;13.35;;
83929;SDS011;73959;52.130;5.584;2024-01-30T03:54:38;24.17;;;13.98;;
83929;SDS011;73959;52.130;5.584;2024-01-30T03:57:04;17.45;;;12.40;;
83929;SDS011;73959;52.130;5.584;2024-01-30T03:59:30;17.70;;;12.73;;
83929;SDS011;73959;52.130;5.584;2024-01-30T04:01:56;21.10;;;13.38;;
83929;SDS011;73959;52.130;5.584;2024-01-30T04:04:22;20.63;;;13.73;;
83929;SDS011;73959;52.130;5.584;2024-01-30T04:06:48;20.13;;;12.90;;
83929;SDS011;73959;52.130;5.584;2024-01-30T04:09:14;19.85;;;13.10;;
83929;SDS011;73959;52.130;5.584;2024-01-30T04:11:41;21.13;;;13.13;;
83929;SDS011;73959;52.130;5.584;2024-01-30T04:14:07;24.35;;;13.25;;
83929;SDS011;73959;52.130;5.584;2024-01-30T04:16:33;21.25;;;13.30;;
83929;SDS011;73959;52.130;5.584;2024-01-30T04:18:59;21.20;;;12.65;;
83929;SDS011;73959;52.130;5.584;2024-01-30T04:21:25;19.52;;;13.13;;
83929;SDS011;73959;52.130;5.584;2024-01-30T04:23:51;20.50;;;12.63;;
83929;SDS011;73959;52.130;5.584;2024-01-30T04:26:17;19.67;;;13.25;;
83929;SDS011;73959;52.130;5.584;2024-01-30T04:28:44;19.05;;;12.25;;
83929;SDS011;73959;52.130;5.584;2024-01-30T04:31:10;17.23;;;12.00;;
83929;SDS011;73959;52.130;5.584;2024-01-30T04:33:36;17.60;;;12.70;;
83929;SDS011;73959;52.130;5.584;2024-01-30T04:36:02;16.98;;;11.90;;
83929;SDS011;73959;52.130;5.584;2024-01-30T04:38:28;17.27;;;12.32;;
83929;SDS011;73959;52.130;5.584;2024-01-30T04:40:55;18.40;;;12.77;;
83929;SDS011;73959;52.130;5.584;2024-01-30T04:43:21;21.83;;;13.18;;
83929;SDS011;73959;52.130;5.584;2024-01-30T04:45:48;17.45;;;13.02;;
83929;SDS011;73959;52.130;5.584;2024-01-30T04:48:14;17.67;;;12.38;;
83929;SDS011;73959;52.130;5.584;2024-01-30T04:50:40;16.58;;;12.80;;
83929;SDS011;73959;52.130;5.584;2024-01-30T04:53:06;18.23;;;11.90;;
83929;SDS011;73959;52.130;5.584;2024-01-30T04:55:32;20.15;;;12.43;;
83929;SDS011;73959;52.130;5.584;2024-01-30T04:57:58;18.85;;;13.60;;
83929;SDS011;73959;52.130;5.584;2024-01-30T05:00:24;18.17;;;12.60;;
83929;SDS011;73959;52.130;5.584;2024-01-30T05:02:50;20.20;;;13.25;;
83929;SDS011;73959;52.130;5.584;2024-01-30T05:05:16;20.98;;;13.25;;
83929;SDS011;73959;52.130;5.584;2024-01-30T05:07:42;25.83;;;13.90;;
83929;SDS011;73959;52.130;5.584;2024-01-30T05:10:08;19.10;;;13.55;;
83929;SDS011;73959;52.130;5.584;2024-01-30T05:12:34;19.75;;;13.15;;
83929;SDS011;73959;52.130;5.584;2024-01-30T05:15:00;16.60;;;12.30;;
83929;SDS011;73959;52.130;5.584;2024-01-30T05:17:26;17.90;;;12.45;;
83929;SDS011;73959;52.130;5.584;2024-01-30T05:19:52;20.30;;;13.13;;
83929;SDS011;73959;52.130;5.584;2024-01-30T05:22:18;16.90;;;12.43;;
83929;SDS011;73959;52.130;5.584;2024-01-30T05:24:44;17.80;;;12.30;;
83929;SDS011;73959;52.130;5.584;2024-01-30T05:27:10;19.45;;;12.43;;
83929;SDS011;73959;52.130;5.584;2024-01-30T05:29:38;19.40;;;13.30;;
83929;SDS011;73959;52.130;5.584;2024-01-30T05:32:05;18.20;;;11.73;;
83929;SDS011;73959;52.130;5.584;2024-01-30T05:34:31;18.63;;;12.27;;
83929;SDS011;73959;52.130;5.584;2024-01-30T05:36:57;18.83;;;12.55;;
83929;SDS011;73959;52.130;5.584;2024-01-30T05:39:23;17.95;;;12.38;;
83929;SDS011;73959;52.130;5.584;2024-01-30T05:41:49;18.92;;;13.15;;
83929;SDS011;73959;52.130;5.584;2024-01-30T05:44:15;18.23;;;12.57;;
83929;SDS011;73959;52.130;5.584;2024-01-30T05:46:41;19.25;;;12.55;;
83929;SDS011;73959;52.130;5.584;2024-01-30T05:49:07;18.27;;;12.65;;
83929;SDS011;73959;52.130;5.584;2024-01-30T05:51:33;17.75;;;12.40;;
83929;SDS011;73959;52.130;5.584;2024-01-30T05:53:59;19.20;;;12.88;;
83929;SDS011;73959;52.130;5.584;2024-01-30T05:56:28;21.35;;;12.88;;
83929;SDS011;73959;52.130;5.584;2024-01-30T05:58:54;16.98;;;12.63;;
83929;SDS011;73959;52.130;5.584;2024-01-30T06:01:20;17.30;;;11.98;;
83929;SDS011;73959;52.130;5.584;2024-01-30T06:03:46;17.33;;;12.63;;
83929;SDS011;73959;52.130;5.584;2024-01-30T06:06:12;19.35;;;12.23;;
83929;SDS011;73959;52.130;5.584;2024-01-30T06:08:38;16.73;;;12.40;;
83929;SDS011;73959;52.130;5.584;2024-01-30T06:11:04;19.27;;;12.20;;
83929;SDS011;73959;52.130;5.584;2024-01-30T06:13:30;19.20;;;12.98;;
83929;SDS011;73959;52.130;5.584;2024-01-30T06:15:56;19.17;;;12.45;;
83929;SDS011;73959;52.130;5.584;2024-01-30T06:18:22;19.30;;;12.45;;
83929;SDS011;73959;52.130;5.584;2024-01-30T06:20:48;18.33;;;12.32;;
83929;SDS011;73959;52.130;5.584;2024-01-30T06:23:14;17.92;;;12.45;;
83929;SDS011;73959;52.130;5.584;2024-01-30T06:25:40;16.67;;;11.68;;
83929;SDS011;73959;52.130;5.584;2024-01-30T06:28:06;15.77;;;11.70;;
83929;SDS011;73959;52.130;5.584;2024-01-30T06:30:32;17.67;;;12.38;;
83929;SDS011;73959;52.130;5.584;2024-01-30T06:32:58;17.58;;;12.00;;
83929;SDS011;73959;52.130;5.584;2024-01-30T06:35:24;18.35;;;12.35;;
83929;SDS011;73959;52.130;5.584;2024-01-30T06:37:50;21.73;;;12.55;;
83929;SDS011;73959;52.130;5.584;2024-01-30T06:40:16;17.50;;;11.45;;
83929;SDS011;73959;52.130;5.584;2024-01-30T06:42:42;17.88;;;12.75;;
83929;SDS011;73959;52.130;5.584;2024-01-30T06:45:08;19.33;;;12.07;;
83929;SDS011;73959;52.130;5.584;2024-01-30T06:47:34;16.20;;;11.27;;
83929;SDS011;73959;52.130;5.584;2024-01-30T06:50:00;17.33;;;11.77;;
83929;SDS011;73959;52.130;5.584;2024-01-30T06:52:27;18.98;;;12.45;;
83929;SDS011;73959;52.130;5.584;2024-01-30T06:54:53;16.48;;;11.75;;
83929;SDS011;73959;52.130;5.584;2024-01-30T06:57:19;20.63;;;12.52;;
83929;SDS011;73959;52.130;5.584;2024-01-30T06:59:45;17.23;;;12.40;;
83929;SDS011;73959;52.130;5.584;2024-01-30T07:02:12;19.63;;;12.20;;
83929;SDS011;73959;52.130;5.584;2024-01-30T07:04:37;17.58;;;11.98;;
83929;SDS011;73959;52.130;5.584;2024-01-30T07:07:05;20.40;;;12.18;;
83929;SDS011;73959;52.130;5.584;2024-01-30T07:09:31;17.40;;;11.98;;
83929;SDS011;73959;52.130;5.584;2024-01-30T07:11:57;17.60;;;11.60;;
83929;SDS011;73959;52.130;5.584;2024-01-30T07:14:23;18.98;;;11.60;;
83929;SDS011;73959;52.130;5.584;2024-01-30T07:16:49;19.38;;;11.73;;
83929;SDS011;73959;52.130;5.584;2024-01-30T07:19:15;16.33;;;11.38;;
83929;SDS011;73959;52.130;5.584;2024-01-30T07:21:41;21.33;;;12.10;;
83929;SDS011;73959;52.130;5.584;2024-01-30T07:24:07;16.50;;;11.35;;
83929;SDS011;73959;52.130;5.584;2024-01-30T07:26:33;17.63;;;11.05;;
83929;SDS011;73959;52.130;5.584;2024-01-30T07:29:00;15.68;;;11.05;;
83929;SDS011;73959;52.130;5.584;2024-01-30T07:31:26;17.23;;;11.48;;
83929;SDS011;73959;52.130;5.584;2024-01-30T07:33:52;20.30;;;11.77;;
83929;SDS011;73959;52.130;5.584;2024-01-30T07:36:19;18.95;;;11.55;;
83929;SDS011;73959;52.130;5.584;2024-01-30T07:38:45;17.95;;;11.50;;
83929;SDS011;73959;52.130;5.584;2024-01-30T07:41:11;17.95;;;11.45;;
83929;SDS011;73959;52.130;5.584;2024-01-30T07:43:42;20.63;;;11.48;;
83929;SDS011;73959;52.130;5.584;2024-01-30T07:46:09;17.35;;;10.88;;
83929;SDS011;73959;52.130;5.584;2024-01-30T07:48:34;19.15;;;11.15;;
83929;SDS011;73959;52.130;5.584;2024-01-30T07:51:00;19.90;;;11.73;;
83929;SDS011;73959;52.130;5.584;2024-01-30T07:53:28;19.42;;;11.07;;
83929;SDS011;73959;52.130;5.584;2024-01-30T07:55:54;17.55;;;11.00;;
83929;SDS011;73959;52.130;5.584;2024-01-30T07:58:20;16.40;;;11.32;;
83929;SDS011;73959;52.130;5.584;2024-01-30T08:00:48;16.60;;;11.23;;
83929;SDS011;73959;52.130;5.584;2024-01-30T08:03:16;19.80;;;11.38;;
83929;SDS011;73959;52.130;5.584;2024-01-30T08:05:43;17.80;;;10.55;;
83929;SDS011;73959;52.130;5.584;2024-01-30T08:08:09;18.20;;;10.75;;
83929;SDS011;73959;52.130;5.584;2024-01-30T08:10:35;16.33;;;11.32;;
83929;SDS011;73959;52.130;5.584;2024-01-30T08:13:01;20.67;;;11.10;;
83929;SDS011;73959;52.130;5.584;2024-01-30T08:15:27;17.17;;;10.77;;
83929;SDS011;73959;52.130;5.584;2024-01-30T08:17:53;16.20;;;10.75;;
83929;SDS011;73959;52.130;5.584;2024-01-30T08:20:23;21.13;;;11.88;;
83929;SDS011;73959;52.130;5.584;2024-01-30T08:22:49;15.52;;;10.90;;
83929;SDS011;73959;52.130;5.584;2024-01-30T08:25:15;16.95;;;11.13;;
83929;SDS011;73959;52.130;5.584;2024-01-30T08:27:41;17.42;;;11.18;;
83929;SDS011;73959;52.130;5.584;2024-01-30T08:30:07;17.08;;;10.45;;
83929;SDS011;73959;52.130;5.584;2024-01-30T08:32:33;23.10;;;10.98;;
83929;SDS011;73959;52.130;5.584;2024-01-30T08:34:59;18.83;;;11.35;;
83929;SDS011;73959;52.130;5.584;2024-01-30T08:37:28;17.90;;;11.15;;
83929;SDS011;73959;52.130;5.584;2024-01-30T08:39:54;17.67;;;10.90;;
83929;SDS011;73959;52.130;5.584;2024-01-30T08:42:21;16.58;;;10.75;;
83929;SDS011;73959;52.130;5.584;2024-01-30T08:44:48;17.80;;;10.57;;
83929;SDS011;73959;52.130;5.584;2024-01-30T08:47:14;17.17;;;11.02;;
83929;SDS011;73959;52.130;5.584;2024-01-30T08:49:42;17.20;;;11.10;;
83929;SDS011;73959;52.130;5.584;2024-01-30T08:52:09;15.52;;;10.48;;
83929;SDS011;73959;52.130;5.584;2024-01-30T08:54:35;15.13;;;10.75;;
83929;SDS011;73959;52.130;5.584;2024-01-30T08:57:01;18.55;;;11.13;;
83929;SDS011;73959;52.130;5.584;2024-01-30T08:59:27;15.25;;;10.35;;
83929;SDS011;73959;52.130;5.584;2024-01-30T09:01:53;16.48;;;10.80;;
83929;SDS011;73959;52.130;5.584;2024-01-30T09:04:20;21.40;;;11.32;;
83929;SDS011;73959;52.130;5.584;2024-01-30T09:06:47;18.75;;;11.75;;
83929;SDS011;73959;52.130;5.584;2024-01-30T09:09:13;20.15;;;10.63;;
83929;SDS011;73959;52.130;5.584;2024-01-30T09:11:39;20.77;;;11.63;;
83929;SDS011;73959;52.130;5.584;2024-01-30T09:14:05;22.20;;;12.48;;
83929;SDS011;73959;52.130;5.584;2024-01-30T09:16:31;18.35;;;12.15;;
83929;SDS011;73959;52.130;5.584;2024-01-30T09:18:57;17.75;;;11.30;;
83929;SDS011;73959;52.130;5.584;2024-01-30T09:21:24;20.02;;;11.82;;
83929;SDS011;73959;52.130;5.584;2024-01-30T09:23:50;23.63;;;12.27;;
83929;SDS011;73959;52.130;5.584;2024-01-30T09:26:16;18.17;;;12.52;;
83929;SDS011;73959;52.130;5.584;2024-01-30T09:28:42;17.65;;;11.30;;
83929;SDS011;73959;52.130;5.584;2024-01-30T09:31:11;17.25;;;12.13;;
83929;SDS011;73959;52.130;5.584;2024-01-30T09:33:37;27.27;;;12.98;;
83929;SDS011;73959;52.130;5.584;2024-01-30T09:36:04;18.13;;;11.88;;
83929;SDS011;73959;52.130;5.584;2024-01-30T09:38:31;22.73;;;12.60;;
83929;SDS011;73959;52.130;5.584;2024-01-30T09:40:57;17.23;;;11.63;;
83929;SDS011;73959;52.130;5.584;2024-01-30T09:43:24;16.83;;;11.15;;
83929;SDS011;73959;52.130;5.584;2024-01-30T09:45:51;17.92;;;11.85;;
83929;SDS011;73959;52.130;5.584;2024-01-30T09:48:17;21.98;;;11.70;;
83929;SDS011;73959;52.130;5.584;2024-01-30T09:50:43;19.30;;;11.32;;
83929;SDS011;73959;52.130;5.584;2024-01-30T09:53:09;23.17;;;12.70;;
83929;SDS011;73959;52.130;5.584;2024-01-30T09:55:35;18.23;;;11.35;;
83929;SDS011;73959;52.130;5.584;2024-01-30T09:58:01;21.88;;;12.65;;
83929;SDS011;73959;52.130;5.584;2024-01-30T10:00:27;22.45;;;12.65;;
83929;SDS011;73959;52.130;5.584;2024-01-30T10:02:53;21.20;;;13.10;;
83929;SDS011;73959;52.130;5.584;2024-01-30T10:05:19;20.42;;;11.65;;
83929;SDS011;73959;52.130;5.584;2024-01-30T10:07:54;18.63;;;11.80;;
83929;SDS011;73959;52.130;5.584;2024-01-30T10:10:23;20.50;;;11.93;;
83929;SDS011;73959;52.130;5.584;2024-01-30T10:12:49;18.88;;;11.75;;
83929;SDS011;73959;52.130;5.584;2024-01-30T10:15:16;18.40;;;11.95;;
83929;SDS011;73959;52.130;5.584;2024-01-30T10:17:44;24.65;;;11.98;;
83929;SDS011;73959;52.130;5.584;2024-01-30T10:20:10;18.52;;;10.75;;
83929;SDS011;73959;52.130;5.584;2024-01-30T10:22:36;17.05;;;11.18;;
83929;SDS011;73959;52.130;5.584;2024-01-30T10:25:02;20.90;;;10.32;;
83929;SDS011;73959;52.130;5.584;2024-01-30T10:27:28;19.00;;;9.77;;
83929;SDS011;73959;52.130;5.584;2024-01-30T10:29:54;16.67;;;9.95;;
83929;SDS011;73959;52.130;5.584;2024-01-30T10:32:21;16.75;;;10.18;;
83929;SDS011;73959;52.130;5.584;2024-01-30T10:34:47;16.45;;;10.05;;
83929;SDS011;73959;52.130;5.584;2024-01-30T10:37:13;17.70;;;10.18;;
83929;SDS011;73959;52.130;5.584;2024-01-30T10:39:43;16.80;;;9.93;;
83929;SDS011;73959;52.130;5.584;2024-01-30T10:42:13;20.65;;;11.63;;
83929;SDS011;73959;52.130;5.584;2024-01-30T10:47:21;15.50;;;9.93;;
83929;SDS011;73959;52.130;5.584;2024-01-30T10:49:51;21.02;;;10.57;;
83929;SDS011;73959;52.130;5.584;2024-01-30T10:52:18;18.40;;;10.93;;
83929;SDS011;73959;52.130;5.584;2024-01-30T10:54:44;19.10;;;10.52;;
83929;SDS011;73959;52.130;5.584;2024-01-30T10:57:10;20.83;;;10.50;;
83929;SDS011;73959;52.130;5.584;2024-01-30T10:59:37;15.18;;;9.75;;
83929;SDS011;73959;52.130;5.584;2024-01-30T11:02:03;19.50;;;10.90;;
83929;SDS011;73959;52.130;5.584;2024-01-30T11:04:36;31.45;;;14.70;;
83929;SDS011;73959;52.130;5.584;2024-01-30T11:07:01;18.45;;;11.07;;
83929;SDS011;73959;52.130;5.584;2024-01-30T11:09:29;15.90;;;10.15;;
83929;SDS011;73959;52.130;5.584;2024-01-30T11:11:58;22.02;;;11.30;;
83929;SDS011;73959;52.130;5.584;2024-01-30T11:14:25;17.10;;;10.73;;
83929;SDS011;73959;52.130;5.584;2024-01-30T11:16:51;19.33;;;10.85;;
83929;SDS011;73959;52.130;5.584;2024-01-30T11:19:23;18.05;;;11.23;;
83929;SDS011;73959;52.130;5.584;2024-01-30T11:21:50;17.23;;;9.85;;
83929;SDS011;73959;52.130;5.584;2024-01-30T11:24:19;14.18;;;9.02;;
83929;SDS011;73959;52.130;5.584;2024-01-30T11:26:46;20.15;;;9.73;;
83929;SDS011;73959;52.130;5.584;2024-01-30T11:29:13;15.43;;;9.50;;
83929;SDS011;73959;52.130;5.584;2024-01-30T11:31:40;14.48;;;8.77;;
83929;SDS011;73959;52.130;5.584;2024-01-30T11:34:06;15.38;;;9.35;;
83929;SDS011;73959;52.130;5.584;2024-01-30T11:36:32;13.15;;;8.00;;
83929;SDS011;73959;52.130;5.584;2024-01-30T11:39:02;14.18;;;7.68;;
83929;SDS011;73959;52.130;5.584;2024-01-30T11:41:28;12.20;;;8.15;;
83929;SDS011;73959;52.130;5.584;2024-01-30T11:43:55;14.88;;;7.15;;
83929;SDS011;73959;52.130;5.584;2024-01-30T11:46:21;13.43;;;6.40;;
83929;SDS011;73959;52.130;5.584;2024-01-30T11:48:47;12.77;;;7.38;;
83929;SDS011;73959;52.130;5.584;2024-01-30T11:51:13;11.90;;;6.25;;
83929;SDS011;73959;52.130;5.584;2024-01-30T11:53:39;22.23;;;12.07;;
83929;SDS011;73959;52.130;5.584;2024-01-30T11:56:08;16.45;;;8.38;;
83929;SDS011;73959;52.130;5.584;2024-01-30T11:58:34;14.68;;;9.60;;
83929;SDS011;73959;52.130;5.584;2024-01-30T12:01:00;12.52;;;6.70;;
83929;SDS011;73959;52.130;5.584;2024-01-30T12:03:26;10.68;;;5.75;;
83929;SDS011;73959;52.130;5.584;2024-01-30T12:05:58;9.52;;;5.07;;
83929;SDS011;73959;52.130;5.584;2024-01-30T12:08:24;8.82;;;5.25;;
83929;SDS011;73959;52.130;5.584;2024-01-30T12:10:57;10.90;;;4.40;;
83929;SDS011;73959;52.130;5.584;2024-01-30T12:13:27;9.95;;;3.90;;
83929;SDS011;73959;52.130;5.584;2024-01-30T12:15:53;9.00;;;3.70;;
83929;SDS011;73959;52.130;5.584;2024-01-30T12:18:19;6.22;;;3.00;;
83929;SDS011;73959;52.130;5.584;2024-01-30T12:20:45;7.78;;;3.63;;
83929;SDS011;73959;52.130;5.584;2024-01-30T12:23:12;5.82;;;2.70;;
83929;SDS011;73959;52.130;5.584;2024-01-30T12:25:38;8.15;;;3.35;;
83929;SDS011;73959;52.130;5.584;2024-01-30T12:28:04;9.48;;;2.85;;
83929;SDS011;73959;52.130;5.584;2024-01-30T12:30:30;9.93;;;2.70;;
83929;SDS011;73959;52.130;5.584;2024-01-30T12:32:56;5.93;;;2.70;;
83929;SDS011;73959;52.130;5.584;2024-01-30T12:35:23;7.18;;;3.30;;
83929;SDS011;73959;52.130;5.584;2024-01-30T12:37:49;6.03;;;2.97;;
83929;SDS011;73959;52.130;5.584;2024-01-30T12:40:15;4.10;;;3.47;;
83929;SDS011;73959;52.130;5.584;2024-01-30T12:42:42;6.15;;;3.63;;
83929;SDS011;73959;52.130;5.584;2024-01-30T12:45:08;7.05;;;4.10;;
83929;SDS011;73959;52.130;5.584;2024-01-30T12:47:34;6.38;;;3.90;;
83929;SDS011;73959;52.130;5.584;2024-01-30T12:50:00;5.55;;;3.80;;
83929;SDS011;73959;52.130;5.584;2024-01-30T12:52:26;7.82;;;4.28;;
83929;SDS011;73959;52.130;5.584;2024-01-30T12:54:52;8.05;;;4.57;;
83929;SDS011;73959;52.130;5.584;2024-01-30T12:57:19;10.60;;;4.07;;
83929;SDS011;73959;52.130;5.584;2024-01-30T12:59:45;8.10;;;4.28;;
83929;SDS011;73959;52.130;5.584;2024-01-30T13:02:12;7.05;;;3.70;;
83929;SDS011;73959;52.130;5.584;2024-01-30T13:04:38;8.07;;;4.57;;
83929;SDS011;73959;52.130;5.584;2024-01-30T13:07:05;9.82;;;3.90;;
83929;SDS011;73959;52.130;5.584;2024-01-30T13:09:31;8.85;;;4.35;;
83929;SDS011;73959;52.130;5.584;2024-01-30T13:11:57;11.55;;;4.25;;
83929;SDS011;73959;52.130;5.584;2024-01-30T13:14:24;9.23;;;3.78;;
83929;SDS011;73959;52.130;5.584;2024-01-30T13:16:50;10.20;;;4.65;;
83929;SDS011;73959;52.130;5.584;2024-01-30T13:19:17;10.45;;;4.20;;
83929;SDS011;73959;52.130;5.584;2024-01-30T13:21:43;7.40;;;4.13;;
83929;SDS011;73959;52.130;5.584;2024-01-30T13:24:09;6.22;;;3.80;;
83929;SDS011;73959;52.130;5.584;2024-01-30T13:26:35;6.40;;;3.92;;
83929;SDS011;73959;52.130;5.584;2024-01-30T13:29:01;8.45;;;3.55;;
83929;SDS011;73959;52.130;5.584;2024-01-30T13:31:27;8.50;;;3.55;;
83929;SDS011;73959;52.130;5.584;2024-01-30T13:33:53;11.48;;;3.80;;
83929;SDS011;73959;52.130;5.584;2024-01-30T13:36:19;7.65;;;4.03;;
83929;SDS011;73959;52.130;5.584;2024-01-30T13:38:46;6.53;;;3.85;;
83929;SDS011;73959;52.130;5.584;2024-01-30T13:41:12;10.27;;;5.55;;
83929;SDS011;73959;52.130;5.584;2024-01-30T13:43:38;9.82;;;5.10;;
83929;SDS011;73959;52.130;5.584;2024-01-30T13:46:04;20.60;;;8.60;;
83929;SDS011;73959;52.130;5.584;2024-01-30T13:48:31;15.80;;;8.25;;
83929;SDS011;73959;52.130;5.584;2024-01-30T13:50:57;11.77;;;6.45;;
83929;SDS011;73959;52.130;5.584;2024-01-30T13:53:22;7.03;;;4.30;;
83929;SDS011;73959;52.130;5.584;2024-01-30T13:55:48;10.40;;;5.15;;
83929;SDS011;73959;52.130;5.584;2024-01-30T13:58:14;7.47;;;2.92;;
83929;SDS011;73959;52.130;5.584;2024-01-30T14:00:40;7.00;;;3.45;;
83929;SDS011;73959;52.130;5.584;2024-01-30T14:03:06;5.25;;;3.05;;
83929;SDS011;73959;52.130;5.584;2024-01-30T14:05:32;5.35;;;2.47;;
83929;SDS011;73959;52.130;5.584;2024-01-30T14:07:58;4.13;;;1.70;;
83929;SDS011;73959;52.130;5.584;2024-01-30T14:10:25;5.38;;;1.80;;
83929;SDS011;73959;52.130;5.584;2024-01-30T14:12:51;3.42;;;2.20;;
83929;SDS011;73959;52.130;5.584;2024-01-30T14:15:17;5.43;;;1.80;;
83929;SDS011;73959;52.130;5.584;2024-01-30T14:17:43;3.30;;;2.50;;
83929;SDS011;73959;52.130;5.584;2024-01-30T14:20:13;5.15;;;2.30;;
83929;SDS011;73959;52.130;5.584;2024-01-30T14:22:42;3.60;;;1.55;;